createdAt,value
2022-11-04T00:02:30.705Z,98059.55
2022-11-04T00:05:05.456Z,98058.95
2022-11-04T00:08:04.166Z,98057.11
2022-11-04T00:10:51.345Z,98046.63
2022-11-04T00:13:23.488Z,98045.92
2022-11-04T00:16:15.109Z,98041.75
2022-11-04T00:19:52.919Z,98041.27
2022-11-04T00:22:43.831Z,98040.09
2022-11-04T00:25:34.312Z,98038.74
2022-11-04T00:28:31.066Z,98037.55
2022-11-04T00:31:19.107Z,98037.13
2022-11-04T00:33:52.643Z,98032.63
2022-11-04T00:36:28.395Z,98031.45
2022-11-04T00:39:01.856Z,98026.17
2022-11-04T00:41:34.960Z,98020.74
2022-11-04T00:44:08.085Z,98024.27
2022-11-04T00:46:40.064Z,98014.97
2022-11-04T00:49:14.771Z,98014.77
2022-11-04T00:51:46.698Z,98006.83
2022-11-04T00:54:23.912Z,98007.45
2022-11-04T00:56:55.785Z,98000.07
2022-11-04T00:59:30.404Z,98002.19
2022-11-04T01:02:03.765Z,97994.98
2022-11-04T01:04:37.781Z,97995.64
2022-11-04T01:07:10.289Z,97997.44
2022-11-04T01:09:45.861Z,97990.70
2022-11-04T01:12:19.957Z,97992.40
2022-11-04T01:14:52.021Z,97986.40
2022-11-04T01:17:24.788Z,97984.41
2022-11-04T01:19:59.019Z,97980.67
2022-11-04T01:22:31.821Z,97984.66
2022-11-04T01:25:07.520Z,97980.11
2022-11-04T01:27:39.426Z,97980.83
2022-11-04T01:30:14.551Z,97976.52
2022-11-04T01:32:48.059Z,97972.77
2022-11-04T01:35:21.335Z,97972.39
2022-11-04T01:37:59.545Z,97964.27
2022-11-04T01:40:37.294Z,97958.98
2022-11-04T01:43:16.426Z,97952.91
2022-11-04T01:45:51.663Z,97949.15
2022-11-04T01:48:27.773Z,97948.80
2022-11-04T01:51:00.772Z,97941.20
2022-11-04T01:53:39.153Z,97940.89
2022-11-04T01:56:14.498Z,97938.28
2022-11-04T01:58:53.576Z,97934.47
2022-11-04T02:01:29.135Z,97925.84
2022-11-04T02:04:17.710Z,97923.39
2022-11-04T02:06:52.147Z,97921.45
2022-11-04T02:09:27.665Z,97915.66
2022-11-04T02:12:20.267Z,97908.91
2022-11-04T02:14:55.472Z,97902.71
2022-11-04T02:17:38.193Z,97903.83
2022-11-04T02:20:25.396Z,97902.08
2022-11-04T02:23:32.695Z,97901.23
2022-11-04T02:26:28.237Z,97894.11
2022-11-04T02:29:26.921Z,97882.73
2022-11-04T02:32:07.892Z,97881.04
2022-11-04T02:34:43.581Z,97879.27
2022-11-04T02:37:29.951Z,97879.48
2022-11-04T02:40:16.686Z,97878.23
2022-11-04T02:42:54.605Z,97873.95
2022-11-04T02:45:31.947Z,97868.59
2022-11-04T02:48:12.044Z,97866.94
2022-11-04T02:50:50.183Z,97864.39
2022-11-04T02:53:27.430Z,97855.98
2022-11-04T02:56:05.072Z,97857.55
2022-11-04T02:58:40.345Z,97855.42
2022-11-04T03:01:15.287Z,97856.14
2022-11-04T03:03:51.348Z,97851.94
2022-11-04T03:06:29.368Z,97850.66
2022-11-04T03:09:04.243Z,97846.95
2022-11-04T03:11:36.793Z,97845.60
2022-11-04T03:14:11.634Z,97847.92
2022-11-04T03:16:46.680Z,97844.92
2022-11-04T03:19:22.034Z,97846.02
2022-11-04T03:22:00.011Z,97849.99
2022-11-04T03:24:34.920Z,97856.09
2022-11-04T03:27:11.716Z,97855.36
2022-11-04T03:29:53.955Z,97850.77
2022-11-04T03:32:34.149Z,97852.91
2022-11-04T03:35:08.618Z,97848.60
2022-11-04T03:37:42.863Z,97848.54
2022-11-04T03:40:17.953Z,97846.49
2022-11-04T03:42:55.304Z,97843.67
2022-11-04T03:45:28.547Z,97842.73
2022-11-04T03:48:01.109Z,97840.59
2022-11-04T03:50:40.768Z,97836.73
2022-11-04T03:53:20.274Z,97834.54
2022-11-04T03:56:09.214Z,97826.24
2022-11-04T03:58:49.725Z,97824.21
2022-11-04T04:01:31.645Z,97822.89
2022-11-04T04:04:10.194Z,97817.48
2022-11-04T04:06:45.137Z,97817.71
2022-11-04T04:09:22.264Z,97815.16
2022-11-04T04:12:00.489Z,97813.05
2022-11-04T04:14:44.952Z,97813.29
2022-11-04T04:17:21.528Z,97814.27
2022-11-04T04:19:56.107Z,97815.07
2022-11-04T04:22:30.560Z,97811.95
2022-11-04T04:25:23.804Z,97809.92
2022-11-04T04:27:56.580Z,97808.27
2022-11-04T04:30:30.072Z,97809.02
2022-11-04T04:33:06.555Z,97811.30
2022-11-04T04:35:44.349Z,97804.98
2022-11-04T04:38:39.892Z,97800.07
2022-11-04T04:41:36.084Z,97793.46
2022-11-04T04:44:33.724Z,97793.13
2022-11-04T04:47:09.235Z,97791.10
2022-11-04T04:49:52.330Z,97792.08
2022-11-04T04:52:28.027Z,97791.84
2022-11-04T04:55:02.258Z,97784.52
2022-11-04T04:57:39.074Z,97781.06
2022-11-04T05:00:16.711Z,97783.63
2022-11-04T05:02:49.584Z,97785.88
2022-11-04T05:05:22.081Z,97778.73
2022-11-04T05:08:07.020Z,97778.61
2022-11-04T05:10:40.854Z,97776.55
2022-11-04T05:13:30.448Z,97783.91
2022-11-04T05:16:10.272Z,97780.47
2022-11-04T05:18:46.102Z,97773.73
2022-11-04T05:21:23.224Z,97773.59
2022-11-04T05:23:55.629Z,97768.90
2022-11-04T05:26:30.857Z,97770.60
2022-11-04T05:29:07.723Z,97765.34
2022-11-04T05:31:40.467Z,97767.97
2022-11-04T05:34:13.612Z,97762.02
2022-11-04T05:36:46.985Z,97763.33
2022-11-04T05:39:19.996Z,97763.90
2022-11-04T05:41:54.560Z,97759.02
2022-11-04T05:44:27.358Z,97764.61
2022-11-04T05:47:01.335Z,97755.69
2022-11-04T05:49:35.779Z,97752.52
2022-11-04T05:52:11.432Z,97753.73
2022-11-04T05:54:45.408Z,97752.11
2022-11-04T05:57:19.392Z,97751.95
2022-11-04T05:59:51.721Z,97749.13
2022-11-04T06:02:25.041Z,97749.80
2022-11-04T06:04:57.285Z,97754.45
2022-11-04T06:07:29.905Z,97751.79
2022-11-04T06:10:05.855Z,97759.45
2022-11-04T06:12:37.968Z,97759.91
2022-11-04T06:15:12.277Z,97755.98
2022-11-04T06:17:45.643Z,97752.91
2022-11-04T06:20:18.704Z,97751.57
2022-11-04T06:22:53.295Z,97745.02
2022-11-04T06:25:31.477Z,97747.01
2022-11-04T06:28:05.264Z,97743.22
2022-11-04T06:30:39.039Z,97749.16
2022-11-04T06:33:14.972Z,97752.41
2022-11-04T06:36:03.200Z,97759.26
2022-11-04T06:38:39.438Z,97761.19
2022-11-04T06:41:14.881Z,97762.59
2022-11-04T06:43:48.585Z,97766.98
2022-11-04T06:46:35.612Z,97771.09
2022-11-04T06:49:11.723Z,97766.75
2022-11-04T06:51:45.883Z,97765.96
2022-11-04T06:54:18.207Z,97769.89
2022-11-04T06:56:51.065Z,97770.48
2022-11-04T06:59:25.970Z,97773.44
2022-11-04T07:01:58.158Z,97769.92
2022-11-04T07:04:31.687Z,97767.94
2022-11-04T07:07:05.778Z,97770.52
2022-11-04T07:09:42.940Z,97767.55
2022-11-04T07:12:20.138Z,97772.41
2022-11-04T07:14:56.775Z,97773.15
2022-11-04T07:17:32.825Z,97772.27
2022-11-04T07:20:17.420Z,97767.08
2022-11-04T07:22:58.187Z,97765.46
2022-11-04T07:26:08.432Z,97763.30
2022-11-04T07:29:08.744Z,97757.41
2022-11-04T07:31:43.794Z,97762.76
2022-11-04T07:34:43.539Z,97757.96
2022-11-04T07:37:42.431Z,97753.80
2022-11-04T07:40:41.600Z,97752.03
2022-11-04T07:43:38.265Z,97753.10
2022-11-04T07:46:20.446Z,97752.15
2022-11-04T07:49:22.620Z,97750.86
2022-11-04T07:51:54.717Z,97749.42
2022-11-04T07:54:29.036Z,97742.00
2022-11-04T07:57:01.434Z,97742.15
2022-11-04T07:59:34.227Z,97737.30
2022-11-04T08:02:06.849Z,97737.52
2022-11-04T08:04:41.728Z,97736.42
2022-11-04T08:07:16.477Z,97740.14
2022-11-04T08:09:52.118Z,97739.12
2022-11-04T08:12:27.932Z,97734.88
2022-11-04T08:15:00.685Z,97735.13
2022-11-04T08:17:33.756Z,97733.38
2022-11-04T08:20:09.860Z,97726.86
2022-11-04T08:22:41.850Z,97730.63
2022-11-04T08:25:14.396Z,97727.27
2022-11-04T08:27:50.217Z,97719.52
2022-11-04T08:30:24.211Z,97716.05
2022-11-04T08:33:00.087Z,97711.77
2022-11-04T08:35:39.747Z,97709.19
2022-11-04T08:38:15.528Z,97706.09
2022-11-04T08:40:48.537Z,97705.20
2022-11-04T08:43:21.582Z,97706.23
2022-11-04T08:45:55.012Z,97702.98
2022-11-04T08:48:30.697Z,97695.70
2022-11-04T08:51:04.277Z,97690.14
2022-11-04T08:53:38.263Z,97689.80
2022-11-04T08:56:17.330Z,97685.71
2022-11-04T08:58:49.599Z,97682.92
2022-11-04T09:01:24.112Z,97681.64
2022-11-04T09:03:58.101Z,97674.80
2022-11-04T09:06:34.283Z,97668.62
2022-11-04T09:09:09.807Z,97671.82
2022-11-04T09:11:45.104Z,97671.78
2022-11-04T09:14:20.861Z,97668.18
2022-11-04T09:16:55.768Z,97669.30
2022-11-04T09:19:28.715Z,97671.60
2022-11-04T09:22:01.354Z,97671.58
2022-11-04T09:24:35.634Z,97667.14
2022-11-04T09:27:11.660Z,97666.21
2022-11-04T09:29:47.651Z,97663.18
2022-11-04T09:33:08.093Z,97662.78
2022-11-04T09:36:10.673Z,97659.38
2022-11-04T09:42:29.026Z,97652.16
2022-11-04T09:45:22.477Z,97649.29
2022-11-04T09:54:35.001Z,97637.84
2022-11-04T09:57:12.261Z,97642.63
2022-11-04T10:00:22.836Z,97639.38
2022-11-04T10:03:44.904Z,97639.14
2022-11-04T10:06:35.542Z,97636.33
2022-11-04T10:09:46.840Z,97634.19
2022-11-04T10:16:09.014Z,97641.98
2022-11-04T10:19:33.794Z,97647.67
2022-11-04T10:22:54.856Z,97645.35
2022-11-04T10:26:05.426Z,97637.69
2022-11-04T10:29:11.446Z,97628.27
2022-11-04T10:32:11.400Z,97622.32
2022-11-04T10:35:20.846Z,97621.67
2022-11-04T10:37:57.607Z,97618.95
2022-11-04T10:50:30.561Z,97611.52
2022-11-04T10:53:55.478Z,97616.69
2022-11-04T10:57:06.454Z,97611.45
2022-11-04T11:00:24.121Z,97606.57
2022-11-04T11:03:22.845Z,97608.76
2022-11-04T11:06:21.303Z,97609.06
2022-11-04T11:08:57.272Z,97606.30
2022-11-04T11:11:41.622Z,97601.89
2022-11-04T11:14:32.185Z,97597.92
2022-11-04T11:17:22.005Z,97591.73
2022-11-04T11:19:59.181Z,97594.50
2022-11-04T11:22:38.911Z,97596.82
2022-11-04T11:25:24.347Z,97597.34
2022-11-04T11:27:59.535Z,97594.02
2022-11-04T11:30:34.845Z,97594.33
2022-11-04T11:33:09.864Z,97592.06
2022-11-04T11:35:46.977Z,97592.09
2022-11-04T11:38:22.542Z,97589.45
2022-11-04T11:41:23.785Z,97586.82
2022-11-04T11:43:59.505Z,97578.38
2022-11-04T11:46:34.597Z,97577.80
2022-11-04T11:49:07.685Z,97580.73
2022-11-04T11:51:41.651Z,97573.98
2022-11-04T11:54:24.536Z,97566.90
2022-11-04T11:57:22.358Z,97570.15
2022-11-04T12:02:59.731Z,97562.44
2022-11-04T12:11:51.842Z,97550.98
2022-11-04T12:14:33.801Z,97546.60
2022-11-04T12:17:14.143Z,97549.82
2022-11-04T12:19:57.976Z,97549.27
2022-11-04T12:22:39.212Z,97554.83
2022-11-04T12:25:20.661Z,97548.59
2022-11-04T12:28:00.265Z,97541.05
2022-11-04T12:30:39.760Z,97542.82
2022-11-04T12:33:21.780Z,97543.63
2022-11-04T12:36:05.188Z,97540.45
2022-11-04T12:38:51.783Z,97542.73
2022-11-04T12:41:47.172Z,97545.28
2022-11-04T12:44:29.611Z,97541.57
2022-11-04T12:47:11.769Z,97541.02
2022-11-04T12:50:11.298Z,97540.52
2022-11-04T12:53:17.478Z,97538.51
2022-11-04T12:55:58.660Z,97537.50
2022-11-04T12:58:39.387Z,97526.70
2022-11-04T13:01:16.319Z,97527.89
2022-11-04T13:03:54.086Z,97531.40
2022-11-04T13:06:31.075Z,97530.91
2022-11-04T13:09:06.817Z,97532.23
2022-11-04T13:11:46.803Z,97531.73
2022-11-04T13:14:27.550Z,97526.86
2022-11-04T13:17:03.044Z,97528.05
2022-11-04T13:19:40.477Z,97534.21
2022-11-04T13:22:15.277Z,97532.66
2022-11-04T13:24:51.116Z,97528.65
2022-11-04T13:27:34.916Z,97526.94
2022-11-04T13:30:18.322Z,97530.54
2022-11-04T13:32:53.985Z,97531.12
2022-11-04T13:35:34.786Z,97535.80
2022-11-04T13:38:12.891Z,97534.80
2022-11-04T13:40:50.774Z,97532.61
2022-11-04T13:43:40.366Z,97528.59
2022-11-04T13:46:31.002Z,97530.91
2022-11-04T13:49:06.026Z,97534.99
2022-11-04T13:51:43.327Z,97534.16
2022-11-04T13:54:31.773Z,97534.96
2022-11-04T13:57:16.014Z,97543.08
2022-11-04T14:00:20.805Z,97540.79
2022-11-04T14:02:54.408Z,97543.44
2022-11-04T14:05:48.749Z,97540.15
2022-11-04T14:08:24.787Z,97541.80
2022-11-04T14:11:09.242Z,97541.09
2022-11-04T14:14:06.646Z,97538.39
2022-11-04T14:16:46.617Z,97537.60
2022-11-04T14:19:58.266Z,97540.63
2022-11-04T14:22:43.096Z,97545.77
2022-11-04T14:25:26.991Z,97540.58
2022-11-04T14:28:01.789Z,97540.42
2022-11-04T14:30:48.438Z,97535.03
2022-11-04T14:33:53.724Z,97532.72
2022-11-04T14:36:42.764Z,97534.66
2022-11-04T14:39:35.001Z,97542.36
2022-11-04T14:42:10.253Z,97541.54
2022-11-04T14:44:49.769Z,97538.47
2022-11-04T14:47:26.793Z,97546.91
2022-11-04T14:50:08.789Z,97546.30
2022-11-04T14:52:51.436Z,97543.25
2022-11-04T14:55:25.140Z,97548.70
2022-11-04T14:57:59.091Z,97554.48
2022-11-04T15:00:34.980Z,97556.40
2022-11-04T15:04:04.644Z,97557.35
2022-11-04T15:06:13.635Z,97550.36
2022-11-04T15:08:49.491Z,97553.33
2022-11-04T15:11:40.680Z,97554.35
2022-11-04T15:14:22.041Z,97547.45
2022-11-04T15:16:58.511Z,97534.34
2022-11-04T15:19:37.986Z,97532.37
2022-11-04T15:22:16.044Z,97530.54
2022-11-04T15:24:50.659Z,97526.17
2022-11-04T15:27:29.522Z,97530.77
2022-11-04T15:30:04.151Z,97531.96
2022-11-04T15:32:37.297Z,97530.88
2022-11-04T15:35:16.676Z,97527.50
2022-11-04T15:37:51.482Z,97531.61
2022-11-04T15:40:25.125Z,97526.17
2022-11-04T15:42:57.877Z,97519.00
2022-11-04T15:45:33.241Z,97514.29
2022-11-04T15:48:34.634Z,97508.81
2022-11-04T15:51:24.850Z,97505.05
2022-11-04T15:54:00.886Z,97507.66
2022-11-04T15:56:36.856Z,97516.02
2022-11-04T15:59:14.168Z,97517.20
2022-11-04T16:01:52.205Z,97508.88
2022-11-04T16:04:27.811Z,97498.67
2022-11-04T16:07:25.108Z,97491.46
2022-11-04T16:09:58.113Z,97484.67
2022-11-04T16:12:39.545Z,97483.95
2022-11-04T16:15:37.416Z,97487.21
2022-11-04T16:18:23.726Z,97485.87
2022-11-04T16:20:57.597Z,97492.81
2022-11-04T16:23:32.837Z,97490.72
2022-11-04T16:26:08.027Z,97487.98
2022-11-04T16:28:41.860Z,97489.57
2022-11-04T16:31:31.131Z,97489.84
2022-11-04T16:34:05.605Z,97491.39
2022-11-04T16:36:37.902Z,97486.52
2022-11-04T16:39:12.698Z,97484.23
2022-11-04T16:41:46.546Z,97488.31
2022-11-04T16:44:23.657Z,97493.77
2022-11-04T16:46:59.655Z,97493.87
2022-11-04T16:49:33.012Z,97496.78
2022-11-04T16:52:07.400Z,97503.26
2022-11-04T16:54:39.309Z,97501.39
2022-11-04T16:57:14.543Z,97504.20
2022-11-04T16:59:52.962Z,97503.86
2022-11-04T17:02:30.860Z,97504.68
2022-11-04T17:05:08.038Z,97504.51
2022-11-04T17:07:54.519Z,97508.33
2022-11-04T17:10:33.404Z,97513.88
2022-11-04T17:13:07.144Z,97510.17
2022-11-04T17:15:41.146Z,97500.64
2022-11-04T17:18:17.233Z,97498.22
2022-11-04T17:20:52.777Z,97496.93
2022-11-04T17:23:25.673Z,97497.16
2022-11-04T17:25:58.704Z,97500.92
2022-11-04T17:28:33.623Z,97499.71
2022-11-04T17:31:14.517Z,97502.27
2022-11-04T17:33:47.713Z,97507.91
2022-11-04T17:36:22.618Z,97509.15
2022-11-04T17:38:54.664Z,97502.05
2022-11-04T17:41:46.655Z,97498.23
2022-11-04T17:44:19.223Z,97497.52
2022-11-04T17:46:52.282Z,97498.80
2022-11-04T17:49:25.897Z,97489.63
2022-11-04T17:52:01.238Z,97487.46
2022-11-04T17:54:34.603Z,97482.52
2022-11-04T17:57:08.879Z,97480.83
2022-11-04T17:59:41.083Z,97477.72
2022-11-04T18:02:13.583Z,97475.49
2022-11-04T18:04:48.991Z,97472.52
2022-11-04T18:07:21.429Z,97474.14
2022-11-04T18:09:55.690Z,97470.37
2022-11-04T18:12:41.673Z,97464.36
2022-11-04T18:15:18.952Z,97463.40
2022-11-04T18:17:53.531Z,97467.27
2022-11-04T18:20:25.609Z,97470.36
2022-11-04T18:23:02.037Z,97469.64
2022-11-04T18:25:35.089Z,97472.24
2022-11-04T18:28:08.186Z,97471.73
2022-11-04T18:30:41.833Z,97475.08
2022-11-04T18:33:14.201Z,97472.90
2022-11-04T18:35:47.097Z,97475.44
2022-11-04T18:38:21.863Z,97479.09
2022-11-04T18:40:56.891Z,97478.00
2022-11-04T18:43:31.835Z,97477.84
2022-11-04T18:46:10.187Z,97477.50
2022-11-04T18:48:43.331Z,97469.98
2022-11-04T18:51:17.349Z,97467.49
2022-11-04T18:53:51.330Z,97466.75
2022-11-04T18:56:25.314Z,97468.70
2022-11-04T18:58:57.846Z,97470.66
2022-11-04T19:01:33.532Z,97471.58
2022-11-04T19:04:08.384Z,97476.73
2022-11-04T19:06:46.332Z,97479.48
2022-11-04T19:12:32.241Z,97485.84
2022-11-04T19:15:06.535Z,97496.26
2022-11-04T19:17:39.883Z,97494.48
2022-11-04T19:20:14.125Z,97497.41
2022-11-04T19:22:47.574Z,97498.70
2022-11-04T19:25:21.509Z,97500.06
2022-11-04T19:28:26.445Z,97503.99
2022-11-04T19:31:05.625Z,97504.10
2022-11-04T19:33:38.380Z,97511.69
2022-11-04T19:36:12.509Z,97517.73
2022-11-04T19:38:45.124Z,97515.58
2022-11-04T19:41:38.242Z,97518.09
2022-11-04T19:44:12.940Z,97522.04
2022-11-04T19:46:49.303Z,97527.08
2022-11-04T19:49:22.268Z,97524.32
2022-11-04T19:51:56.081Z,97524.02
2022-11-04T19:54:32.806Z,97522.86
2022-11-04T19:57:05.443Z,97519.73
2022-11-04T19:59:44.361Z,97526.39
2022-11-04T20:02:21.942Z,97527.88
2022-11-04T20:04:56.518Z,97529.08
2022-11-04T20:07:29.024Z,97528.36
2022-11-04T20:10:02.730Z,97530.81
2022-11-04T20:12:56.097Z,97532.18
2022-11-04T20:15:31.337Z,97537.55
2022-11-04T20:18:05.403Z,97540.63
2022-11-04T20:20:38.935Z,97542.73
2022-11-04T20:23:11.410Z,97549.50
2022-11-04T20:25:44.092Z,97553.11
2022-11-04T20:28:19.429Z,97552.83
2022-11-04T20:30:52.195Z,97560.13
2022-11-04T20:33:26.278Z,97558.50
2022-11-04T20:36:01.046Z,97562.55
2022-11-04T20:38:34.761Z,97564.93
2022-11-04T20:41:16.775Z,97569.57
2022-11-04T20:43:51.588Z,97573.93
2022-11-04T20:46:29.622Z,97571.63
2022-11-04T20:49:05.787Z,97578.45
2022-11-04T20:51:42.236Z,97586.98
2022-11-04T20:54:15.672Z,97596.36
2022-11-04T20:56:48.732Z,97599.52
2022-11-04T20:59:22.598Z,97598.45
2022-11-04T21:01:57.594Z,97603.73
2022-11-04T21:04:35.950Z,97598.29
2022-11-04T21:07:10.103Z,97600.76
2022-11-04T21:09:45.210Z,97604.40
2022-11-04T21:12:17.772Z,97605.43
2022-11-04T21:14:50.312Z,97604.05
2022-11-04T21:17:24.171Z,97605.14
2022-11-04T21:19:59.353Z,97611.60
2022-11-04T21:22:31.969Z,97616.92
2022-11-04T21:25:05.197Z,97615.40
2022-11-04T21:27:42.068Z,97618.74
2022-11-04T21:30:16.792Z,97623.33
2022-11-04T21:32:49.228Z,97627.29
2022-11-04T21:35:21.950Z,97630.14
2022-11-04T21:37:56.741Z,97637.85
2022-11-04T21:40:28.814Z,97637.68
2022-11-04T21:43:04.655Z,97639.35
2022-11-04T21:45:39.055Z,97640.77
2022-11-04T21:48:11.932Z,97640.91
2022-11-04T21:50:47.545Z,97639.37
2022-11-04T21:53:20.230Z,97636.18
2022-11-04T21:55:53.940Z,97636.92
2022-11-04T21:58:27.738Z,97636.31
2022-11-04T22:01:01.744Z,97635.95
2022-11-04T22:03:35.649Z,97627.83
2022-11-04T22:06:10.245Z,97630.08
2022-11-04T22:08:46.387Z,97626.63
2022-11-04T22:11:20.280Z,97625.95
2022-11-04T22:13:57.237Z,97626.14
2022-11-04T22:16:31.027Z,97631.44
2022-11-04T22:19:06.667Z,97628.98
2022-11-04T22:21:41.218Z,97630.36
2022-11-04T22:24:18.917Z,97630.67
2022-11-04T22:26:53.459Z,97627.15
2022-11-04T22:29:27.154Z,97629.08
2022-11-04T22:32:00.135Z,97634.23
2022-11-04T22:34:33.393Z,97633.86
2022-11-04T22:37:10.297Z,97629.55
2022-11-04T22:39:43.662Z,97631.88
2022-11-04T22:42:15.537Z,97629.69
2022-11-04T22:44:47.413Z,97626.93
2022-11-04T22:47:19.893Z,97622.00
2022-11-04T22:49:56.629Z,97618.00
2022-11-04T22:52:29.252Z,97615.19
2022-11-04T22:55:08.543Z,97610.27
2022-11-04T22:57:44.257Z,97614.60
2022-11-04T23:00:18.116Z,97623.84
2022-11-04T23:02:55.252Z,97622.88
2022-11-04T23:05:30.772Z,97625.38
2022-11-04T23:08:03.380Z,97631.94
2022-11-04T23:10:54.426Z,97635.44
2022-11-04T23:13:45.785Z,97638.40
2022-11-04T23:16:35.454Z,97639.39
2022-11-04T23:19:07.679Z,97645.36
2022-11-04T23:21:58.232Z,97648.63
2022-11-04T23:24:49.266Z,97651.84
2022-11-04T23:27:37.166Z,97653.31
2022-11-04T23:30:25.912Z,97648.95
2022-11-04T23:32:59.866Z,97653.94
2022-11-04T23:35:55.142Z,97651.83
2022-11-04T23:38:29.702Z,97654.16
2022-11-04T23:41:37.732Z,97663.70
2022-11-04T23:44:32.677Z,97669.75
2022-11-04T23:47:24.736Z,97667.37
2022-11-04T23:50:16.607Z,97665.05
2022-11-04T23:53:07.399Z,97669.46
2022-11-04T23:55:57.536Z,97679.14
2022-11-04T23:58:49.403Z,97679.97
